Time;durP1;ratioP1;P1;durP2;ratioP2;P2;SDS_P1;SDS_P2;PMS_P1;PMS_P2;Temp;Humidity;BMP_temperature;BMP_pressure;BME280_temperature;BME280_humidity;BME280_pressure;Samples;Min_cycle;Max_cycle;Signal;HPM_P1;HPM_P2
2022/10/05 00:00:26;;;;;;;0.00;0.00;;;14.50;99.90;;;;;;5046537;28;20476;-71
2022/10/05 00:02:55;;;;;;;0.00;0.00;;;14.40;99.90;;;;;;5053134;28;20448;-71
2022/10/05 00:05:30;;;;;;;0.00;0.00;;;14.40;99.90;;;;;;5040750;28;20851;-71
2022/10/05 00:08:10;;;;;;;0.00;0.00;;;14.50;99.90;;;;;;5033072;28;20439;-70
2022/10/05 00:10:40;;;;;;;0.00;0.00;;;14.50;99.90;;;;;;5032866;28;20495;-71
2022/10/05 00:13:13;;;;;;;0.00;0.00;;;14.60;99.90;;;;;;5033208;28;20809;-71
2022/10/05 00:15:41;;;;;;;0.00;0.00;;;14.60;99.90;;;;;;5033120;28;20495;-71
2022/10/05 00:18:15;;;;;;;0.00;0.00;;;14.60;99.90;;;;;;5032461;28;20894;-71
2022/10/05 00:20:43;;;;;;;0.00;0.00;;;14.70;99.90;;;;;;5033338;28;20491;-72
2022/10/05 00:23:17;;;;;;;0.00;0.00;;;14.80;99.90;;;;;;5036715;28;20809;-72
2022/10/05 00:25:45;;;;;;;0.00;0.00;;;14.90;99.90;;;;;;5033065;28;20924;-71
2022/10/05 00:28:18;;;;;;;0.00;0.00;;;14.90;99.90;;;;;;5032972;28;20433;-71
2022/10/05 00:30:46;;;;;;;0.00;0.00;;;15.00;99.90;;;;;;5032938;28;20457;-71
2022/10/05 00:33:14;;;;;;;0.00;0.00;;;15.00;99.90;;;;;;5032638;28;20453;-73
2022/10/05 00:35:42;;;;;;;0.00;0.00;;;15.00;99.90;;;;;;5032669;28;20963;-71
2022/10/05 00:38:09;;;;;;;0.00;0.00;;;15.00;99.90;;;;;;5032511;28;20904;-71
2022/10/05 00:40:50;;;;;;;0.00;0.00;;;15.00;99.90;;;;;;5032933;28;20475;-72
2022/10/05 00:43:32;;;;;;;0.00;0.00;;;15.00;99.90;;;;;;5032855;28;21002;-73
2022/10/05 00:46:08;;;;;;;0.00;0.00;;;15.10;99.90;;;;;;5035131;28;20908;-68
2022/10/05 00:48:46;;;;;;;0.00;0.00;;;15.20;99.90;;;;;;5043968;28;20437;-72
2022/10/05 00:51:22;;;;;;;0.00;0.00;;;15.20;99.90;;;;;;5046212;28;20457;-71
2022/10/05 00:54:01;;;;;;;0.00;0.00;;;15.20;99.90;;;;;;5045329;28;20783;-71
2022/10/05 00:56:46;;;;;;;0.00;0.00;;;15.20;99.90;;;;;;5045470;28;20499;-71
2022/10/05 00:59:31;;;;;;;0.00;0.00;;;15.20;99.90;;;;;;5045911;28;20472;-71
2022/10/05 01:02:04;;;;;;;0.00;0.00;;;15.30;99.90;;;;;;5047643;28;20433;-71
2022/10/05 01:04:38;;;;;;;0.00;0.00;;;15.30;99.90;;;;;;5046145;28;20476;-71
2022/10/05 01:07:15;;;;;;;0.00;0.00;;;15.30;99.90;;;;;;5041307;28;20874;-70
2022/10/05 01:09:52;;;;;;;0.00;0.00;;;15.40;99.90;;;;;;5035514;28;20461;-71
2022/10/05 01:12:26;;;;;;;0.00;0.00;;;15.30;99.90;;;;;;5035732;28;20951;-69
2022/10/05 01:15:02;;;;;;;0.00;0.00;;;15.40;99.90;;;;;;5035686;28;20959;-69
2022/10/05 01:17:36;;;;;;;0.00;0.00;;;15.40;99.90;;;;;;5035428;28;20853;-70
2022/10/05 01:20:14;;;;;;;0.00;0.00;;;15.40;99.90;;;;;;5035397;28;20517;-70
2022/10/05 01:23:03;;;;;;;0.00;0.00;;;15.40;99.90;;;;;;5035452;28;20502;-70
2022/10/05 01:25:39;;;;;;;0.00;0.00;;;15.40;99.90;;;;;;5035722;28;20924;-70
2022/10/05 01:28:13;;;;;;;0.00;0.00;;;15.40;99.90;;;;;;5043865;28;20743;-70
2022/10/05 01:30:54;;;;;;;0.00;0.00;;;15.40;99.90;;;;;;5046961;28;20463;-70
2022/10/05 01:33:30;;;;;;;0.00;0.00;;;15.30;99.90;;;;;;5038796;28;20507;-69
2022/10/05 01:36:05;;;;;;;0.00;0.00;;;15.30;99.90;;;;;;5035657;28;20857;-70
2022/10/05 01:38:42;;;;;;;0.00;0.00;;;15.30;99.90;;;;;;5035044;28;20538;-70
2022/10/05 01:41:22;;;;;;;0.00;0.00;;;15.30;99.90;;;;;;5035237;28;20508;-70
2022/10/05 01:43:57;;;;;;;0.00;0.00;;;15.40;99.90;;;;;;5035066;28;20487;-70
2022/10/05 01:46:31;;;;;;;0.00;0.00;;;15.40;99.90;;;;;;5035053;28;20494;-70
2022/10/05 01:49:13;;;;;;;0.00;0.00;;;15.40;99.90;;;;;;5034426;28;20495;-70
2022/10/05 01:51:51;;;;;;;0.00;0.00;;;15.40;99.90;;;;;;5034587;28;20466;-70
2022/10/05 01:54:28;;;;;;;0.00;0.00;;;15.40;99.90;;;;;;5034619;28;20445;-70
2022/10/05 01:57:06;;;;;;;0.00;0.00;;;15.30;99.90;;;;;;5034562;28;20445;-70
2022/10/05 01:59:50;;;;;;;0.00;0.00;;;15.30;99.90;;;;;;5034332;28;20908;-69
2022/10/05 02:02:20;;;;;;;0.00;0.00;;;15.30;99.90;;;;;;5034682;28;20433;-69
2022/10/05 02:04:52;;;;;;;0.00;0.00;;;15.30;99.90;;;;;;5034882;28;20487;-70
2022/10/05 02:07:33;;;;;;;0.00;0.00;;;15.20;99.90;;;;;;5034232;28;20447;-71
2022/10/05 02:10:08;;;;;;;0.00;0.00;;;15.20;99.90;;;;;;5034305;28;20468;-70
2022/10/05 02:12:38;;;;;;;0.00;0.00;;;15.20;99.90;;;;;;5034811;28;20437;-70
2022/10/05 02:21:37;;;;;;;0.00;0.00;;;15.20;99.90;;;;;;5041031;28;20455;-89
2022/10/05 02:24:09;;;;;;;0.00;0.00;;;15.10;99.90;;;;;;5042259;28;20438;-90
2022/10/05 02:26:40;;;;;;;0.00;0.00;;;15.10;99.90;;;;;;5043012;28;20884;-91
2022/10/05 02:29:11;;;;;;;0.00;0.00;;;15.10;99.90;;;;;;5042558;28;20446;-90
2022/10/05 02:31:45;;;;;;;0.00;0.00;;;15.10;99.90;;;;;;5042162;28;20445;-90
2022/10/05 02:34:29;;;;;;;0.00;0.00;;;15.10;99.90;;;;;;5042332;28;20417;-89
2022/10/05 02:37:12;;;;;;;0.00;0.00;;;15.10;99.90;;;;;;5045280;28;20520;-89
2022/10/05 02:39:49;;;;;;;0.00;0.00;;;15.10;99.90;;;;;;5057818;28;20495;-89
2022/10/05 02:42:27;;;;;;;0.00;0.00;;;15.10;99.90;;;;;;5051321;28;20428;-88
2022/10/05 02:45:03;;;;;;;0.00;0.00;;;15.10;99.90;;;;;;5059925;28;20451;-90
2022/10/05 02:47:40;;;;;;;0.00;0.00;;;15.10;99.90;;;;;;5059584;28;20457;-87
2022/10/05 02:50:15;;;;;;;0.00;0.00;;;15.10;99.90;;;;;;5046817;28;20489;-91
2022/10/05 02:52:54;;;;;;;0.00;0.00;;;15.00;99.90;;;;;;5042752;28;20786;-90
2022/10/05 02:55:30;;;;;;;0.00;0.00;;;15.00;99.90;;;;;;5043544;28;20503;-91
2022/10/05 02:58:04;;;;;;;0.00;0.00;;;15.00;99.90;;;;;;5043147;28;20955;-90
2022/10/05 03:00:40;;;;;;;0.00;0.00;;;15.00;99.90;;;;;;5041533;28;20853;-89
2022/10/05 03:03:15;;;;;;;0.00;0.00;;;15.00;99.90;;;;;;5041802;28;20444;-87
2022/10/05 03:05:48;;;;;;;0.00;0.00;;;14.90;99.90;;;;;;5041931;28;20448;-89
2022/10/05 03:08:22;;;;;;;0.00;0.00;;;14.90;99.90;;;;;;5041339;28;20514;-91
2022/10/05 03:10:57;;;;;;;0.00;0.00;;;14.90;99.90;;;;;;5041367;28;20968;-90
2022/10/05 03:13:32;;;;;;;0.00;0.00;;;14.80;99.90;;;;;;5041033;28;20955;-90
2022/10/05 03:19:58;;;;;;;0.00;0.00;;;14.90;99.90;;;;;;5067134;22;20496;-76
2022/10/05 03:22:37;;;;;;;0.00;0.00;;;14.80;99.90;;;;;;5054609;28;20847;-74
2022/10/05 03:25:55;;;;;;;0.00;0.00;;;14.80;99.90;;;;;;5053321;28;20448;-73
2022/10/05 03:28:30;;;;;;;0.00;0.00;;;14.90;99.90;;;;;;5014089;28;20444;-73
2022/10/05 03:31:03;;;;;;;0.00;0.00;;;14.90;99.90;;;;;;5053092;28;20812;-73
2022/10/05 03:33:40;;;;;;;0.00;0.00;;;14.90;99.90;;;;;;5052910;28;20927;-73
2022/10/05 03:36:15;;;;;;;0.00;0.00;;;14.90;99.90;;;;;;5049998;28;20494;-73
2022/10/05 03:38:47;;;;;;;0.00;0.00;;;14.90;99.90;;;;;;5033011;28;20442;-73
2022/10/05 03:41:23;;;;;;;0.00;0.00;;;14.90;99.90;;;;;;5032979;28;20449;-73
2022/10/05 03:44:05;;;;;;;0.00;0.00;;;14.90;99.90;;;;;;5033148;28;20486;-73
2022/10/05 03:46:44;;;;;;;0.00;0.00;;;14.90;99.90;;;;;;5032873;28;20441;-73
2022/10/05 03:49:19;;;;;;;0.00;0.00;;;14.90;99.90;;;;;;5032965;28;20528;-73
2022/10/05 03:51:53;;;;;;;0.00;0.00;;;14.90;99.90;;;;;;5042974;28;20513;-72
2022/10/05 03:54:25;;;;;;;0.00;0.00;;;15.00;99.90;;;;;;5052983;28;20493;-72
2022/10/05 03:56:57;;;;;;;0.00;0.00;;;14.90;99.90;;;;;;5052635;28;20490;-72
2022/10/05 03:59:31;;;;;;;0.00;0.00;;;14.90;99.90;;;;;;5052781;28;20480;-72
2022/10/05 04:02:02;;;;;;;0.00;0.00;;;14.90;99.90;;;;;;5037666;28;20460;-71
2022/10/05 04:04:36;;;;;;;0.00;0.00;;;14.90;99.90;;;;;;5032886;28;20441;-71
2022/10/05 04:07:09;;;;;;;0.00;0.00;;;14.90;99.90;;;;;;5032885;28;20503;-72
2022/10/05 04:09:42;;;;;;;0.00;0.00;;;14.90;99.90;;;;;;5032274;28;20519;-70
2022/10/05 04:12:14;;;;;;;0.00;0.00;;;14.90;99.90;;;;;;5035727;28;20492;-71
2022/10/05 04:14:48;;;;;;;0.00;0.00;;;14.90;99.90;;;;;;5032284;28;20544;-71
2022/10/05 04:17:18;;;;;;;0.00;0.00;;;14.90;99.90;;;;;;5033204;28;20863;-71
2022/10/05 04:19:54;;;;;;;0.00;0.00;;;14.80;99.90;;;;;;5048806;28;20488;-71
2022/10/05 04:22:25;;;;;;;0.00;0.00;;;14.90;99.90;;;;;;5033133;28;20444;-70
2022/10/05 04:25:00;;;;;;;0.00;0.00;;;14.80;99.90;;;;;;5036380;28;20441;-70
2022/10/05 04:27:34;;;;;;;0.00;0.00;;;14.90;99.90;;;;;;5036793;28;20443;-71
2022/10/05 04:30:11;;;;;;;0.00;0.00;;;14.80;99.90;;;;;;5055400;28;21059;-70
2022/10/05 04:32:42;;;;;;;0.00;0.00;;;14.90;99.90;;;;;;5036910;28;20808;-70
2022/10/05 04:35:27;;;;;;;0.00;0.00;;;14.80;99.90;;;;;;5036485;28;20499;-70
2022/10/05 04:38:05;;;;;;;0.00;0.00;;;14.90;99.90;;;;;;5036097;28;20441;-71
2022/10/05 04:40:43;;;;;;;0.00;0.00;;;14.90;99.90;;;;;;5036195;28;20476;-71
2022/10/05 04:43:17;;;;;;;0.00;0.00;;;14.80;99.90;;;;;;5036079;28;20823;-71
2022/10/05 04:45:59;;;;;;;0.00;0.00;;;14.80;99.90;;;;;;5037194;28;20464;-72
2022/10/05 04:48:45;;;;;;;0.00;0.00;;;14.80;99.90;;;;;;5037464;28;20445;-71
2022/10/05 04:51:28;;;;;;;0.00;0.00;;;14.80;99.90;;;;;;5035993;28;20875;-71
2022/10/05 04:54:06;;;;;;;0.00;0.00;;;14.80;99.90;;;;;;5036657;28;20827;-71
2022/10/05 04:56:40;;;;;;;0.00;0.00;;;14.80;99.90;;;;;;5036197;28;20528;-72
2022/10/05 04:59:27;;;;;;;0.00;0.00;;;14.70;99.90;;;;;;5036035;28;20432;-72
2022/10/05 05:02:05;;;;;;;0.00;0.00;;;14.80;99.90;;;;;;5036282;28;20781;-72
2022/10/05 05:05:01;;;;;;;0.00;0.00;;;14.80;99.90;;;;;;5036223;28;20449;-72
2022/10/05 05:07:44;;;;;;;0.00;0.00;;;14.80;99.90;;;;;;5035769;28;20452;-72
2022/10/05 05:10:42;;;;;;;0.00;0.00;;;14.80;99.90;;;;;;5035596;28;20869;-72
2022/10/05 05:13:32;;;;;;;0.00;0.00;;;14.80;99.90;;;;;;5041929;28;20429;-71
2022/10/05 05:16:07;;;;;;;0.00;0.00;;;14.80;99.90;;;;;;5045138;28;20428;-72
2022/10/05 05:18:49;;;;;;;0.00;0.00;;;14.80;99.90;;;;;;5047250;28;20862;-72
2022/10/05 05:21:32;;;;;;;0.00;0.00;;;14.80;99.90;;;;;;5044993;28;21019;-72
2022/10/05 05:24:09;;;;;;;0.00;0.00;;;14.80;99.90;;;;;;5035545;28;20890;-72
2022/10/05 05:26:49;;;;;;;0.00;0.00;;;14.80;99.90;;;;;;5032771;28;20449;-72
2022/10/05 05:29:29;;;;;;;0.00;0.00;;;14.90;99.90;;;;;;5034748;28;20455;-72
2022/10/05 05:32:04;;;;;;;0.00;0.00;;;14.90;99.90;;;;;;5035952;28;20436;-72
2022/10/05 05:34:46;;;;;;;0.00;0.00;;;14.90;99.90;;;;;;5033318;28;20503;-72
2022/10/05 05:37:23;;;;;;;0.00;0.00;;;14.90;99.90;;;;;;5047644;28;20498;-71
2022/10/05 05:40:00;;;;;;;0.00;0.00;;;14.90;99.90;;;;;;5053702;28;20526;-72
2022/10/05 05:42:39;;;;;;;0.00;0.00;;;15.00;99.90;;;;;;5053779;28;20435;-72
2022/10/05 05:45:16;;;;;;;0.00;0.00;;;14.90;99.90;;;;;;5053834;28;20494;-71
2022/10/05 05:47:52;;;;;;;0.00;0.00;;;14.90;99.90;;;;;;5054040;28;20444;-72
2022/10/05 05:50:40;;;;;;;0.00;0.00;;;14.80;99.90;;;;;;5055327;28;20455;-71
2022/10/05 05:53:14;;;;;;;0.00;0.00;;;14.80;99.90;;;;;;5055414;28;20863;-72
2022/10/05 05:55:45;;;;;;;0.00;0.00;;;14.80;99.90;;;;;;5054751;28;20789;-71
2022/10/05 05:58:20;;;;;;;0.00;0.00;;;14.80;99.90;;;;;;5034653;28;20494;-72
2022/10/05 06:00:52;;;;;;;0.00;0.00;;;14.80;99.90;;;;;;5034973;28;20480;-72
2022/10/05 06:03:26;;;;;;;0.00;0.00;;;14.80;99.90;;;;;;5034649;28;20499;-72
2022/10/05 06:05:59;;;;;;;0.00;0.00;;;14.80;99.90;;;;;;5035257;28;20887;-71
2022/10/05 06:08:33;;;;;;;0.00;0.00;;;14.80;99.90;;;;;;5034754;28;20430;-72
2022/10/05 06:11:06;;;;;;;0.00;0.00;;;14.80;99.90;;;;;;5034509;28;20538;-71
2022/10/05 06:13:38;;;;;;;0.00;0.00;;;14.80;99.90;;;;;;5034605;28;20501;-75
2022/10/05 06:16:13;;;;;;;0.00;0.00;;;14.70;99.90;;;;;;5037647;28;20525;-75
2022/10/05 06:18:46;;;;;;;0.00;0.00;;;14.70;99.90;;;;;;5039259;28;20933;-74
2022/10/05 06:21:22;;;;;;;0.00;0.00;;;14.70;99.90;;;;;;5033329;28;20496;-74
2022/10/05 06:23:56;;;;;;;0.00;0.00;;;14.70;99.90;;;;;;5034096;28;20495;-74
2022/10/05 06:26:41;;;;;;;0.00;0.00;;;14.80;99.90;;;;;;5034190;28;20456;-75
2022/10/05 06:29:15;;;;;;;0.00;0.00;;;14.80;99.90;;;;;;5040053;28;20456;-75
2022/10/05 06:32:03;;;;;;;0.00;0.00;;;14.80;99.90;;;;;;5044392;28;20848;-75
2022/10/05 06:34:50;;;;;;;0.00;0.00;;;14.80;99.90;;;;;;5033839;28;20897;-76
2022/10/05 06:37:28;;;;;;;0.00;0.00;;;14.80;99.90;;;;;;5033278;28;20440;-73
2022/10/05 06:40:02;;;;;;;0.00;0.00;;;14.70;99.90;;;;;;5033659;28;20468;-73
2022/10/05 06:42:54;;;;;;;0.00;0.00;;;14.80;99.90;;;;;;5041322;28;20533;-73
2022/10/05 06:45:30;;;;;;;0.00;0.00;;;14.80;99.90;;;;;;5052734;28;20456;-73
2022/10/05 06:48:08;;;;;;;0.00;0.00;;;14.80;99.90;;;;;;5043045;28;20476;-73
2022/10/05 06:50:42;;;;;;;0.00;0.00;;;14.80;99.90;;;;;;5033700;28;20481;-72
2022/10/05 06:53:28;;;;;;;0.00;0.00;;;14.90;99.90;;;;;;5038469;28;20473;-73
2022/10/05 06:56:02;;;;;;;0.00;0.00;;;14.90;99.90;;;;;;5037890;28;20452;-73
2022/10/05 06:58:51;;;;;;;0.00;0.00;;;15.00;99.90;;;;;;5042297;28;20502;-73
2022/10/05 07:01:29;;;;;;;0.00;0.00;;;15.00;99.90;;;;;;5040928;28;20987;-74
2022/10/05 07:04:21;;;;;;;0.00;0.00;;;15.10;99.90;;;;;;5033806;28;20461;-72
2022/10/05 07:06:53;;;;;;;0.00;0.00;;;15.10;99.90;;;;;;5042982;28;20433;-74
2022/10/05 07:09:29;;;;;;;0.00;0.00;;;15.20;99.90;;;;;;5033529;28;20450;-73
2022/10/05 07:12:08;;;;;;;0.00;0.00;;;15.20;99.90;;;;;;5033814;28;20433;-72
2022/10/05 07:14:47;;;;;;;0.00;0.00;;;15.20;99.90;;;;;;5041774;28;20935;-73
2022/10/05 07:17:31;;;;;;;0.00;0.00;;;15.30;99.90;;;;;;5037240;28;20453;-73
2022/10/05 07:20:08;;;;;;;0.00;0.00;;;15.40;99.90;;;;;;5037957;28;20480;-73
2022/10/05 07:22:51;;;;;;;0.00;0.00;;;15.40;99.90;;;;;;5044171;28;20984;-73
2022/10/05 07:25:27;;;;;;;0.00;0.00;;;15.50;99.90;;;;;;5032584;28;20883;-73
2022/10/05 07:28:00;;;;;;;0.00;0.00;;;15.60;99.90;;;;;;5047875;28;20435;-73
2022/10/05 07:30:29;;;;;;;0.00;0.00;;;15.60;99.90;;;;;;5038554;28;20476;-74
2022/10/05 07:33:01;;;;;;;0.00;0.00;;;15.70;99.90;;;;;;5034846;28;20441;-70
2022/10/05 07:38:38;;;;;;;0.00;0.00;;;15.90;99.90;;;;;;5046061;28;20454;-70
2022/10/05 07:41:18;;;;;;;0.00;0.00;;;16.00;99.90;;;;;;5033971;28;20527;-70
2022/10/05 07:43:53;;;;;;;0.00;0.00;;;16.00;99.90;;;;;;5050476;28;20802;-69
2022/10/05 07:46:43;;;;;;;0.00;0.00;;;16.00;99.90;;;;;;5042047;28;20455;-70
2022/10/05 07:49:18;;;;;;;0.00;0.00;;;16.00;99.90;;;;;;5047647;28;20453;-70
2022/10/05 07:51:50;;;;;;;0.00;0.00;;;16.00;99.90;;;;;;5046183;28;20440;-70
2022/10/05 07:54:23;;;;;;;0.00;0.00;;;16.00;99.90;;;;;;5044166;28;20497;-70
2022/10/05 07:57:01;;;;;;;0.00;0.00;;;16.00;99.90;;;;;;5044191;28;20519;-70
2022/10/05 07:59:34;;;;;;;0.00;0.00;;;16.10;99.90;;;;;;5038775;28;20862;-70
2022/10/05 08:02:12;;;;;;;0.00;0.00;;;16.10;99.90;;;;;;5043556;28;20564;-70
2022/10/05 08:04:51;;;;;;;0.00;0.00;;;16.10;99.90;;;;;;5043449;28;20476;-70
2022/10/05 08:07:19;;;;;;;0.00;0.00;;;16.10;99.90;;;;;;5041967;28;20529;-70
2022/10/05 08:09:54;;;;;;;0.00;0.00;;;16.10;99.90;;;;;;5044725;28;20857;-69
2022/10/05 08:12:39;;;;;;;0.00;0.00;;;16.20;99.90;;;;;;5044509;28;20847;-70
2022/10/05 08:15:15;;;;;;;0.00;0.00;;;16.20;99.90;;;;;;5042799;28;20442;-70
2022/10/05 08:17:50;;;;;;;0.00;0.00;;;16.10;99.90;;;;;;5047295;28;20975;-70
2022/10/05 08:20:42;;;;;;;0.00;0.00;;;16.10;99.90;;;;;;5042328;28;20476;-69
2022/10/05 08:23:20;;;;;;;0.00;0.00;;;16.10;99.90;;;;;;5041160;28;20649;-70
2022/10/05 08:25:59;;;;;;;0.00;0.00;;;16.20;99.90;;;;;;5044697;28;20988;-70
2022/10/05 08:28:33;;;;;;;0.00;0.00;;;16.30;99.90;;;;;;5046156;28;20460;-70
2022/10/05 08:31:08;;;;;;;0.00;0.00;;;16.40;99.90;;;;;;5046069;28;20989;-70
2022/10/05 08:33:50;;;;;;;0.00;0.00;;;16.50;99.90;;;;;;5044795;28;20433;-70
2022/10/05 08:36:23;;;;;;;0.00;0.00;;;16.60;99.90;;;;;;5044892;28;20931;-70
2022/10/05 08:38:54;;;;;;;0.00;0.00;;;16.70;99.90;;;;;;5047262;28;20432;-70
2022/10/05 08:41:54;;;;;;;0.00;0.00;;;16.80;99.90;;;;;;5036082;28;20473;-70
2022/10/05 08:45:03;;;;;;;0.00;0.00;;;16.80;99.90;;;;;;5048806;28;20441;-70
2022/10/05 08:47:56;;;;;;;0.00;0.00;;;16.90;99.90;;;;;;5036060;28;20854;-70
2022/10/05 08:50:34;;;;;;;0.00;0.00;;;17.00;99.90;;;;;;5040072;28;20466;-71
2022/10/05 08:53:24;;;;;;;0.00;0.00;;;16.90;99.90;;;;;;5052200;28;20495;-71
2022/10/05 08:56:03;;;;;;;0.00;0.00;;;17.00;99.90;;;;;;5037126;28;20513;-70
2022/10/05 08:58:54;;;;;;;0.00;0.00;;;17.20;99.90;;;;;;5059425;28;20601;-69
2022/10/05 09:01:34;;;;;;;0.00;0.00;;;17.20;99.90;;;;;;5034755;28;20548;-71
2022/10/05 09:04:23;;;;;;;0.00;0.00;;;17.20;99.90;;;;;;5041379;28;20957;-70
2022/10/05 09:07:12;;;;;;;0.00;0.00;;;17.10;99.90;;;;;;5035987;28;20807;-72
2022/10/05 09:10:21;;;;;;;0.00;0.00;;;17.00;99.90;;;;;;5033485;28;20922;-70
2022/10/05 09:13:21;;;;;;;0.00;0.00;;;16.90;99.90;;;;;;5035432;28;20468;-69
2022/10/05 09:16:09;;;;;;;0.00;0.00;;;16.90;99.90;;;;;;5003814;28;20558;-71
2022/10/05 09:18:53;;;;;;;0.00;0.00;;;16.80;99.90;;;;;;5055501;28;20440;-70
2022/10/05 09:21:41;;;;;;;0.00;0.00;;;16.80;99.90;;;;;;5043887;28;20530;-69
2022/10/05 09:24:27;;;;;;;0.00;0.00;;;16.90;99.90;;;;;;5035716;28;20497;-70
2022/10/05 09:27:08;;;;;;;0.00;0.00;;;17.10;99.90;;;;;;5040688;28;20864;-70
2022/10/05 09:30:03;;;;;;;0.00;0.00;;;17.30;99.90;;;;;;5055312;28;20455;-70
2022/10/05 09:33:01;;;;;;;0.00;0.00;;;17.30;99.90;;;;;;5052408;28;20487;-70
2022/10/05 09:35:56;;;;;;;0.00;0.00;;;17.30;99.90;;;;;;5037854;28;20446;-70
2022/10/05 09:38:36;;;;;;;0.00;0.00;;;17.30;99.90;;;;;;5043951;28;20472;-69
2022/10/05 09:41:45;;;;;;;0.00;0.00;;;17.20;99.90;;;;;;5045823;28;20885;-70
2022/10/05 09:44:39;;;;;;;0.00;0.00;;;17.20;99.90;;;;;;5043004;28;20541;-70
2022/10/05 09:47:37;;;;;;;0.00;0.00;;;17.30;99.90;;;;;;5036657;28;20449;-70
2022/10/05 09:50:21;;;;;;;0.00;0.00;;;17.30;99.90;;;;;;5041263;28;20486;-73
2022/10/05 09:53:04;;;;;;;0.00;0.00;;;17.50;99.90;;;;;;5034901;28;20855;-73
2022/10/05 09:56:13;;;;;;;0.00;0.00;;;17.50;99.90;;;;;;5043635;28;20447;-72
2022/10/05 09:59:18;;;;;;;0.00;0.00;;;17.50;99.90;;;;;;5045431;28;20449;-69
2022/10/05 10:02:15;;;;;;;0.00;0.00;;;17.50;99.90;;;;;;5049123;28;20436;-71
2022/10/05 10:05:10;;;;;;;0.00;0.00;;;17.70;99.90;;;;;;5042062;28;20470;-72
2022/10/05 10:08:03;;;;;;;0.00;0.00;;;17.80;99.90;;;;;;5041524;28;20449;-71
2022/10/05 10:10:53;;;;;;;0.00;0.00;;;17.80;99.90;;;;;;5045822;28;20472;-70
2022/10/05 10:13:55;;;;;;;0.00;0.00;;;17.90;99.90;;;;;;5042063;28;20537;-71
2022/10/05 10:16:37;;;;;;;0.00;0.00;;;17.80;99.90;;;;;;5044088;28;20916;-72
2022/10/05 10:19:42;;;;;;;0.00;0.00;;;17.90;99.90;;;;;;5046749;28;20452;-72
2022/10/05 10:22:49;;;;;;;0.00;0.00;;;17.90;99.90;;;;;;5032968;28;20484;-75
2022/10/05 10:26:07;;;;;;;0.00;0.00;;;17.80;99.90;;;;;;5055161;28;20456;-71
2022/10/05 10:28:58;;;;;;;0.00;0.00;;;17.80;99.90;;;;;;4993262;28;20859;-71
2022/10/05 10:31:50;;;;;;;0.00;0.00;;;17.90;99.90;;;;;;4993437;28;20472;-70
2022/10/05 10:34:47;;;;;;;0.00;0.00;;;17.70;99.90;;;;;;5030567;28;20952;-70
2022/10/05 10:37:39;;;;;;;0.00;0.00;;;17.60;99.90;;;;;;5047206;28;20491;-71
2022/10/05 10:40:29;;;;;;;0.00;0.00;;;17.50;99.90;;;;;;5042344;28;20987;-69
2022/10/05 10:43:32;;;;;;;0.00;0.00;;;17.50;99.90;;;;;;5053909;28;20995;-71
2022/10/05 10:46:13;;;;;;;0.00;0.00;;;17.40;99.90;;;;;;5052813;28;20443;-71
2022/10/05 10:48:56;;;;;;;0.00;0.00;;;17.30;99.90;;;;;;5052638;28;20489;-71
2022/10/05 10:52:02;;;;;;;0.00;0.00;;;17.20;99.90;;;;;;5037821;28;20821;-70
2022/10/05 10:54:54;;;;;;;0.00;0.00;;;17.20;99.90;;;;;;5038912;28;20813;-71
2022/10/05 10:57:30;;;;;;;0.00;0.00;;;17.20;99.90;;;;;;5042362;28;20941;-71
2022/10/05 11:00:22;;;;;;;0.00;0.00;;;17.20;99.90;;;;;;5033555;28;20546;-71
2022/10/05 11:03:38;;;;;;;0.00;0.00;;;17.10;99.90;;;;;;5039003;28;20473;-71
2022/10/05 11:06:35;;;;;;;0.00;0.00;;;17.10;99.90;;;;;;5040114;28;20465;-71
2022/10/05 11:09:24;;;;;;;0.00;0.00;;;17.10;99.90;;;;;;5030098;28;20469;-71
2022/10/05 11:12:29;;;;;;;0.00;0.00;;;17.00;99.90;;;;;;5044122;28;20483;-71
2022/10/05 11:15:26;;;;;;;0.00;0.00;;;17.00;99.90;;;;;;5033012;28;20497;-72
2022/10/05 11:18:04;;;;;;;0.00;0.00;;;17.10;99.90;;;;;;5033598;28;20448;-72
2022/10/05 11:20:58;;;;;;;0.00;0.00;;;17.10;99.90;;;;;;5031817;28;20489;-72
2022/10/05 11:23:44;;;;;;;0.00;0.00;;;17.10;99.90;;;;;;5038287;28;20480;-72
2022/10/05 11:26:36;;;;;;;0.00;0.00;;;17.00;99.90;;;;;;5035924;28;20454;-74
2022/10/05 11:29:32;;;;;;;0.00;0.00;;;16.90;99.90;;;;;;5032932;28;20503;-76
2022/10/05 11:32:34;;;;;;;0.00;0.00;;;16.90;99.90;;;;;;5043140;28;20449;-70
2022/10/05 11:35:26;;;;;;;0.00;0.00;;;16.90;99.90;;;;;;5033517;28;20837;-71
2022/10/05 11:38:12;;;;;;;0.00;0.00;;;16.90;99.90;;;;;;5040069;28;20539;-70
2022/10/05 11:41:16;;;;;;;0.00;0.00;;;17.00;99.90;;;;;;5033378;28;20461;-71
2022/10/05 11:44:15;;;;;;;0.00;0.00;;;17.10;99.90;;;;;;5032621;28;20482;-71
2022/10/05 11:46:52;;;;;;;0.00;0.00;;;17.20;99.90;;;;;;5033316;28;20465;-70
2022/10/05 11:49:29;;;;;;;0.00;0.00;;;17.20;99.90;;;;;;5032797;28;20519;-70
2022/10/05 11:52:07;;;;;;;0.00;0.00;;;17.20;99.90;;;;;;5032772;28;20503;-71
2022/10/05 11:55:00;;;;;;;0.00;0.00;;;17.10;99.90;;;;;;5032623;28;20453;-71
2022/10/05 11:57:50;;;;;;;0.00;0.00;;;17.10;99.90;;;;;;5032557;28;20477;-70
2022/10/05 12:00:20;;;;;;;0.00;0.00;;;17.20;99.90;;;;;;5032667;28;20964;-71
2022/10/05 12:03:18;;;;;;;0.00;0.00;;;17.20;99.90;;;;;;5032835;28;20442;-71
2022/10/05 12:06:03;;;;;;;0.00;0.00;;;17.20;99.90;;;;;;5032708;28;20443;-71
2022/10/05 12:08:40;;;;;;;0.00;0.00;;;17.20;99.90;;;;;;5032776;28;20442;-70
2022/10/05 12:11:25;;;;;;;0.00;0.00;;;17.20;99.90;;;;;;5032536;28;20535;-70
2022/10/05 12:14:00;;;;;;;0.00;0.00;;;17.30;99.90;;;;;;5033467;28;20438;-70
2022/10/05 12:16:37;;;;;;;0.00;0.00;;;17.40;99.90;;;;;;5037846;28;20430;-71
2022/10/05 12:19:12;;;;;;;0.00;0.00;;;17.50;99.90;;;;;;5041975;28;20468;-69
2022/10/05 12:21:47;;;;;;;0.00;0.00;;;17.50;99.90;;;;;;5040453;28;20437;-69
2022/10/05 12:24:20;;;;;;;0.00;0.00;;;17.50;99.90;;;;;;5044166;28;20886;-69
2022/10/05 12:26:59;;;;;;;0.00;0.00;;;17.50;99.90;;;;;;5042891;28;20430;-69
2022/10/05 12:29:35;;;;;;;0.00;0.00;;;17.60;99.90;;;;;;5041481;28;20442;-71
2022/10/05 12:32:10;;;;;;;0.00;0.00;;;17.60;99.90;;;;;;5037203;28;20481;-70
2022/10/05 12:34:48;;;;;;;0.00;0.00;;;17.70;99.90;;;;;;5041235;28;20432;-70
2022/10/05 12:37:36;;;;;;;0.00;0.00;;;17.80;99.90;;;;;;5046129;28;20449;-70
2022/10/05 12:40:14;;;;;;;0.00;0.00;;;17.90;99.90;;;;;;5044187;28;20992;-72
2022/10/05 12:42:50;;;;;;;0.00;0.00;;;17.90;99.90;;;;;;5043637;28;20437;-71
2022/10/05 12:45:31;;;;;;;0.00;0.00;;;18.00;99.90;;;;;;5043295;28;21064;-71
2022/10/05 12:48:17;;;;;;;0.00;0.00;;;17.90;99.90;;;;;;5047037;28;20453;-70
2022/10/05 12:50:49;;;;;;;0.00;0.00;;;18.00;99.90;;;;;;5043184;28;20477;-71
2022/10/05 12:53:33;;;;;;;0.00;0.00;;;18.10;99.90;;;;;;5049942;28;20462;-74
2022/10/05 12:56:05;;;;;;;0.00;0.00;;;18.20;99.90;;;;;;5045365;28;20474;-73
2022/10/05 12:58:43;;;;;;;0.00;0.00;;;18.10;99.90;;;;;;5047213;28;20447;-74
2022/10/05 13:01:22;;;;;;;0.00;0.00;;;18.10;99.90;;;;;;5046733;28;20520;-73
2022/10/05 13:03:59;;;;;;;0.00;0.00;;;18.10;99.90;;;;;;5044907;28;21054;-73
2022/10/05 13:06:38;;;;;;;0.00;0.00;;;18.20;99.90;;;;;;5046482;28;20453;-73
2022/10/05 13:09:11;;;;;;;0.00;0.00;;;18.10;99.90;;;;;;5043912;28;20449;-73
2022/10/05 13:11:46;;;;;;;0.00;0.00;;;18.10;99.90;;;;;;5047879;28;20487;-74
2022/10/05 13:14:23;;;;;;;0.00;0.00;;;18.20;99.90;;;;;;5046672;28;20514;-73
2022/10/05 13:16:58;;;;;;;0.00;0.00;;;18.20;99.90;;;;;;5047639;28;20488;-73
2022/10/05 13:19:38;;;;;;;0.00;0.00;;;18.20;99.90;;;;;;5046623;28;20451;-73
2022/10/05 13:22:31;;;;;;;0.00;0.00;;;18.20;99.90;;;;;;5050358;28;20449;-73
2022/10/05 13:25:18;;;;;;;0.00;0.00;;;18.30;99.90;;;;;;5035685;28;20479;-74
2022/10/05 13:27:54;;;;;;;0.00;0.00;;;18.30;99.90;;;;;;5047960;28;20462;-76
2022/10/05 13:30:22;;;;;;;0.00;0.00;;;18.30;99.90;;;;;;5044041;28;20985;-68
2022/10/05 13:32:56;;;;;;;0.00;0.00;;;18.40;99.90;;;;;;5044459;28;20462;-70
2022/10/05 13:35:43;;;;;;;0.00;0.00;;;18.50;99.90;;;;;;5043824;28;20423;-69
2022/10/05 13:38:24;;;;;;;0.00;0.00;;;18.50;99.90;;;;;;5049692;28;20820;-69
2022/10/05 13:41:02;;;;;;;0.00;0.00;;;18.50;99.90;;;;;;5048499;28;20513;-71
2022/10/05 13:43:38;;;;;;;0.00;0.00;;;18.50;99.90;;;;;;5049007;28;20502;-71
2022/10/05 13:46:12;;;;;;;0.00;0.00;;;18.50;99.90;;;;;;5051796;28;20837;-71
2022/10/05 13:48:59;;;;;;;0.00;0.00;;;18.50;99.90;;;;;;5044107;28;20517;-71
2022/10/05 13:51:36;;;;;;;0.00;0.00;;;18.50;99.90;;;;;;5053063;28;20482;-71
2022/10/05 13:54:17;;;;;;;0.00;0.00;;;18.50;99.90;;;;;;5036220;28;20510;-71
2022/10/05 13:56:51;;;;;;;0.00;0.00;;;18.50;99.90;;;;;;5036646;28;20448;-69
2022/10/05 13:59:27;;;;;;;0.00;0.00;;;18.50;99.90;;;;;;5050611;28;20448;-69
2022/10/05 14:01:59;;;;;;;0.00;0.00;;;18.60;99.90;;;;;;5037424;28;20456;-69
2022/10/05 14:04:30;;;;;;;0.00;0.00;;;18.70;99.90;;;;;;5051325;28;20629;-70
2022/10/05 14:07:20;;;;;;;0.00;0.00;;;18.70;99.90;;;;;;5053221;28;20932;-69
2022/10/05 14:09:48;;;;;;;0.00;0.00;;;18.70;99.90;;;;;;5054141;28;20529;-69